sensor_id;sensor_type;location;lat;lon;timestamp;temperature;humidity
21244;DHT22;10780;50.942;4.028;2023-02-28T00:00:34;2.10;99.90
21244;DHT22;10780;50.942;4.028;2023-02-28T00:03:01;2.10;99.90
21244;DHT22;10780;50.942;4.028;2023-02-28T00:05:27;2.10;99.90
21244;DHT22;10780;50.942;4.028;2023-02-28T00:07:54;2.00;99.90
21244;DHT22;10780;50.942;4.028;2023-02-28T00:10:31;1.90;99.90
21244;DHT22;10780;50.942;4.028;2023-02-28T00:13:02;1.80;99.90
21244;DHT22;10780;50.942;4.028;2023-02-28T00:15:28;1.80;99.90
21244;DHT22;10780;50.942;4.028;2023-02-28T00:17:54;1.80;99.90
21244;DHT22;10780;50.942;4.028;2023-02-28T00:20:20;1.90;99.90
21244;DHT22;10780;50.942;4.028;2023-02-28T00:22:49;1.90;99.90
21244;DHT22;10780;50.942;4.028;2023-02-28T00:25:18;2.00;99.90
21244;DHT22;10780;50.942;4.028;2023-02-28T00:27:45;1.90;99.90
21244;DHT22;10780;50.942;4.028;2023-02-28T00:30:14;1.80;99.90
21244;DHT22;10780;50.942;4.028;2023-02-28T00:32:40;1.90;99.90
21244;DHT22;10780;50.942;4.028;2023-02-28T00:35:06;1.90;99.90
21244;DHT22;10780;50.942;4.028;2023-02-28T00:37:32;1.80;99.90
21244;DHT22;10780;50.942;4.028;2023-02-28T00:39:57;1.60;99.90
21244;DHT22;10780;50.942;4.028;2023-02-28T00:42:23;1.70;99.90
21244;DHT22;10780;50.942;4.028;2023-02-28T00:44:49;1.70;99.90
21244;DHT22;10780;50.942;4.028;2023-02-28T00:47:15;1.90;99.90
21244;DHT22;10780;50.942;4.028;2023-02-28T00:49:41;1.90;99.90
21244;DHT22;10780;50.942;4.028;2023-02-28T00:52:07;2.00;99.90
21244;DHT22;10780;50.942;4.028;2023-02-28T00:54:33;1.90;99.90
21244;DHT22;10780;50.942;4.028;2023-02-28T00:56:59;2.00;99.90
21244;DHT22;10780;50.942;4.028;2023-02-28T00:59:25;2.00;99.90
21244;DHT22;10780;50.942;4.028;2023-02-28T01:01:51;2.00;99.90
21244;DHT22;10780;50.942;4.028;2023-02-28T01:04:17;1.90;99.90
21244;DHT22;10780;50.942;4.028;2023-02-28T01:06:42;1.90;99.90
21244;DHT22;10780;50.942;4.028;2023-02-28T01:09:08;1.80;99.90
21244;DHT22;10780;50.942;4.028;2023-02-28T01:11:34;1.80;99.90
21244;DHT22;10780;50.942;4.028;2023-02-28T01:14:01;1.90;99.90
21244;DHT22;10780;50.942;4.028;2023-02-28T01:16:27;1.90;99.90
21244;DHT22;10780;50.942;4.028;2023-02-28T01:18:53;2.00;99.90
21244;DHT22;10780;50.942;4.028;2023-02-28T01:21:23;1.90;99.90
21244;DHT22;10780;50.942;4.028;2023-02-28T01:23:49;1.90;99.90
21244;DHT22;10780;50.942;4.028;2023-02-28T01:26:20;1.80;99.90
21244;DHT22;10780;50.942;4.028;2023-02-28T01:28:47;1.70;99.90
21244;DHT22;10780;50.942;4.028;2023-02-28T01:31:13;1.80;99.90
21244;DHT22;10780;50.942;4.028;2023-02-28T01:33:39;1.80;99.90
21244;DHT22;10780;50.942;4.028;2023-02-28T01:36:11;1.80;99.90
21244;DHT22;10780;50.942;4.028;2023-02-28T01:38:37;1.80;99.90
21244;DHT22;10780;50.942;4.028;2023-02-28T01:41:03;1.70;99.90
21244;DHT22;10780;50.942;4.028;2023-02-28T01:46:11;1.90;99.90
21244;DHT22;10780;50.942;4.028;2023-02-28T01:48:49;2.00;99.90
21244;DHT22;10780;50.942;4.028;2023-02-28T01:51:29;2.00;99.90
21244;DHT22;10780;50.942;4.028;2023-02-28T01:54:00;2.20;99.90
21244;DHT22;10780;50.942;4.028;2023-02-28T01:56:30;2.10;99.90
21244;DHT22;10780;50.942;4.028;2023-02-28T01:58:57;2.00;99.90
21244;DHT22;10780;50.942;4.028;2023-02-28T02:01:25;2.00;99.90
21244;DHT22;10780;50.942;4.028;2023-02-28T02:03:54;1.70;99.90
21244;DHT22;10780;50.942;4.028;2023-02-28T02:06:30;1.50;99.90
21244;DHT22;10780;50.942;4.028;2023-02-28T02:08:59;1.50;99.90
21244;DHT22;10780;50.942;4.028;2023-02-28T02:11:25;1.50;99.90
21244;DHT22;10780;50.942;4.028;2023-02-28T02:14:16;1.50;99.90
21244;DHT22;10780;50.942;4.028;2023-02-28T02:17:10;1.60;99.90
21244;DHT22;10780;50.942;4.028;2023-02-28T02:27:49;1.60;99.90
21244;DHT22;10780;50.942;4.028;2023-02-28T02:41:51;1.30;99.90
21244;DHT22;10780;50.942;4.028;2023-02-28T02:44:27;1.40;99.90
21244;DHT22;10780;50.942;4.028;2023-02-28T02:46:59;1.30;99.90
21244;DHT22;10780;50.942;4.028;2023-02-28T02:49:31;1.40;99.90
21244;DHT22;10780;50.942;4.028;2023-02-28T02:52:01;1.40;99.90
21244;DHT22;10780;50.942;4.028;2023-02-28T02:54:33;1.40;99.90
21244;DHT22;10780;50.942;4.028;2023-02-28T02:57:04;1.40;99.90
21244;DHT22;10780;50.942;4.028;2023-02-28T02:59:31;1.50;99.90
21244;DHT22;10780;50.942;4.028;2023-02-28T03:02:01;1.50;99.90
21244;DHT22;10780;50.942;4.028;2023-02-28T03:04:32;1.50;99.90
21244;DHT22;10780;50.942;4.028;2023-02-28T03:06:59;1.40;99.90
21244;DHT22;10780;50.942;4.028;2023-02-28T03:09:25;1.50;99.90
21244;DHT22;10780;50.942;4.028;2023-02-28T03:11:54;1.50;99.90
21244;DHT22;10780;50.942;4.028;2023-02-28T03:15:13;1.30;99.90
21244;DHT22;10780;50.942;4.028;2023-02-28T03:20:33;1.40;99.90
21244;DHT22;10780;50.942;4.028;2023-02-28T03:23:29;1.40;99.90
21244;DHT22;10780;50.942;4.028;2023-02-28T03:26:13;1.20;99.90
21244;DHT22;10780;50.942;4.028;2023-02-28T03:29:05;1.20;99.90
21244;DHT22;10780;50.942;4.028;2023-02-28T03:31:34;1.20;99.90
21244;DHT22;10780;50.942;4.028;2023-02-28T03:34:05;1.10;99.90
21244;DHT22;10780;50.942;4.028;2023-02-28T03:36:37;1.10;99.90
21244;DHT22;10780;50.942;4.028;2023-02-28T03:39:20;1.10;99.90
21244;DHT22;10780;50.942;4.028;2023-02-28T03:41:58;1.10;99.90
21244;DHT22;10780;50.942;4.028;2023-02-28T03:44:33;1.10;99.90
21244;DHT22;10780;50.942;4.028;2023-02-28T03:47:09;1.20;99.90
21244;DHT22;10780;50.942;4.028;2023-02-28T03:49:46;1.10;99.90
21244;DHT22;10780;50.942;4.028;2023-02-28T03:52:17;1.00;99.90
21244;DHT22;10780;50.942;4.028;2023-02-28T03:54:48;1.00;99.90
21244;DHT22;10780;50.942;4.028;2023-02-28T03:57:40;1.10;99.90
21244;DHT22;10780;50.942;4.028;2023-02-28T04:00:12;1.20;99.90
21244;DHT22;10780;50.942;4.028;2023-02-28T04:02:39;1.10;99.90
21244;DHT22;10780;50.942;4.028;2023-02-28T04:05:06;1.30;99.90
21244;DHT22;10780;50.942;4.028;2023-02-28T04:07:33;1.20;99.90
21244;DHT22;10780;50.942;4.028;2023-02-28T04:09:59;1.10;99.90
21244;DHT22;10780;50.942;4.028;2023-02-28T04:12:25;1.00;99.90
21244;DHT22;10780;50.942;4.028;2023-02-28T04:14:50;1.00;99.90
21244;DHT22;10780;50.942;4.028;2023-02-28T04:17:16;1.00;99.90
21244;DHT22;10780;50.942;4.028;2023-02-28T04:19:42;0.90;99.90
21244;DHT22;10780;50.942;4.028;2023-02-28T04:22:08;1.00;99.90
21244;DHT22;10780;50.942;4.028;2023-02-28T04:24:35;1.00;99.90
21244;DHT22;10780;50.942;4.028;2023-02-28T04:27:02;1.00;99.90
21244;DHT22;10780;50.942;4.028;2023-02-28T04:29:31;0.90;99.90
21244;DHT22;10780;50.942;4.028;2023-02-28T04:31:58;1.00;99.90
21244;DHT22;10780;50.942;4.028;2023-02-28T04:34:29;0.90;99.90
21244;DHT22;10780;50.942;4.028;2023-02-28T04:36:55;1.00;99.90
21244;DHT22;10780;50.942;4.028;2023-02-28T04:39:22;1.10;99.90
21244;DHT22;10780;50.942;4.028;2023-02-28T04:41:48;1.20;99.90
21244;DHT22;10780;50.942;4.028;2023-02-28T04:44:14;1.30;99.90
21244;DHT22;10780;50.942;4.028;2023-02-28T04:46:40;1.50;99.90
21244;DHT22;10780;50.942;4.028;2023-02-28T04:49:06;1.60;99.90
21244;DHT22;10780;50.942;4.028;2023-02-28T04:51:33;1.60;99.90
21244;DHT22;10780;50.942;4.028;2023-02-28T04:53:58;1.40;99.90
21244;DHT22;10780;50.942;4.028;2023-02-28T04:56:24;1.60;99.90
21244;DHT22;10780;50.942;4.028;2023-02-28T04:58:50;1.60;99.90
21244;DHT22;10780;50.942;4.028;2023-02-28T05:01:24;1.50;99.90
21244;DHT22;10780;50.942;4.028;2023-02-28T05:03:52;1.50;99.90
21244;DHT22;10780;50.942;4.028;2023-02-28T05:06:18;1.30;99.90
21244;DHT22;10780;50.942;4.028;2023-02-28T05:08:43;1.40;99.90
21244;DHT22;10780;50.942;4.028;2023-02-28T05:11:21;1.50;99.90
21244;DHT22;10780;50.942;4.028;2023-02-28T05:13:49;1.60;99.90
21244;DHT22;10780;50.942;4.028;2023-02-28T05:16:15;1.80;99.90
21244;DHT22;10780;50.942;4.028;2023-02-28T05:18:41;1.80;99.90
21244;DHT22;10780;50.942;4.028;2023-02-28T05:23:49;2.00;99.90
21244;DHT22;10780;50.942;4.028;2023-02-28T05:26:14;2.20;99.90
21244;DHT22;10780;50.942;4.028;2023-02-28T05:28:40;2.40;99.90
21244;DHT22;10780;50.942;4.028;2023-02-28T05:31:05;2.50;99.90
21244;DHT22;10780;50.942;4.028;2023-02-28T05:33:31;2.70;99.90
21244;DHT22;10780;50.942;4.028;2023-02-28T05:35:57;2.80;99.90
21244;DHT22;10780;50.942;4.028;2023-02-28T05:38:22;2.90;99.90
21244;DHT22;10780;50.942;4.028;2023-02-28T05:40:48;2.80;99.90
21244;DHT22;10780;50.942;4.028;2023-02-28T05:43:13;2.70;99.90
21244;DHT22;10780;50.942;4.028;2023-02-28T05:45:39;2.50;99.90
21244;DHT22;10780;50.942;4.028;2023-02-28T05:48:05;2.30;99.90
21244;DHT22;10780;50.942;4.028;2023-02-28T05:50:30;2.20;99.90
21244;DHT22;10780;50.942;4.028;2023-02-28T05:52:56;2.20;99.90
21244;DHT22;10780;50.942;4.028;2023-02-28T05:55:22;2.40;99.90
21244;DHT22;10780;50.942;4.028;2023-02-28T05:57:48;2.40;99.90
21244;DHT22;10780;50.942;4.028;2023-02-28T06:00:14;2.50;99.90
21244;DHT22;10780;50.942;4.028;2023-02-28T06:02:41;2.50;99.90
21244;DHT22;10780;50.942;4.028;2023-02-28T06:05:14;2.50;99.90
21244;DHT22;10780;50.942;4.028;2023-02-28T06:07:40;2.60;99.90
21244;DHT22;10780;50.942;4.028;2023-02-28T06:10:06;2.60;99.90
21244;DHT22;10780;50.942;4.028;2023-02-28T06:12:32;2.70;99.90
21244;DHT22;10780;50.942;4.028;2023-02-28T06:14:58;2.80;99.90
21244;DHT22;10780;50.942;4.028;2023-02-28T06:17:23;2.80;99.90
21244;DHT22;10780;50.942;4.028;2023-02-28T06:19:49;2.80;99.90
21244;DHT22;10780;50.942;4.028;2023-02-28T06:22:14;2.90;99.90
21244;DHT22;10780;50.942;4.028;2023-02-28T06:24:40;2.90;99.90
21244;DHT22;10780;50.942;4.028;2023-02-28T06:27:06;3.00;99.90
21244;DHT22;10780;50.942;4.028;2023-02-28T06:29:33;3.10;99.90
21244;DHT22;10780;50.942;4.028;2023-02-28T06:31:59;3.20;99.90
21244;DHT22;10780;50.942;4.028;2023-02-28T06:34:24;3.10;99.90
21244;DHT22;10780;50.942;4.028;2023-02-28T06:36:51;3.10;99.90
21244;DHT22;10780;50.942;4.028;2023-02-28T06:39:17;3.10;99.90
21244;DHT22;10780;50.942;4.028;2023-02-28T06:41:43;3.30;99.90
21244;DHT22;10780;50.942;4.028;2023-02-28T06:44:17;3.30;99.90
21244;DHT22;10780;50.942;4.028;2023-02-28T06:46:45;3.40;99.90
21244;DHT22;10780;50.942;4.028;2023-02-28T06:49:11;3.40;99.90
21244;DHT22;10780;50.942;4.028;2023-02-28T06:51:43;3.30;99.90
21244;DHT22;10780;50.942;4.028;2023-02-28T06:54:12;3.40;99.90
21244;DHT22;10780;50.942;4.028;2023-02-28T06:56:38;3.40;99.90
21244;DHT22;10780;50.942;4.028;2023-02-28T06:59:04;3.40;99.90
21244;DHT22;10780;50.942;4.028;2023-02-28T07:01:30;3.40;99.90
21244;DHT22;10780;50.942;4.028;2023-02-28T07:03:58;3.50;99.90
21244;DHT22;10780;50.942;4.028;2023-02-28T07:06:25;3.40;99.90
21244;DHT22;10780;50.942;4.028;2023-02-28T07:08:52;3.30;99.90
21244;DHT22;10780;50.942;4.028;2023-02-28T07:11:20;3.40;99.90
21244;DHT22;10780;50.942;4.028;2023-02-28T07:13:54;3.50;99.90
21244;DHT22;10780;50.942;4.028;2023-02-28T07:16:22;3.50;99.90
21244;DHT22;10780;50.942;4.028;2023-02-28T07:18:55;3.60;99.90
21244;DHT22;10780;50.942;4.028;2023-02-28T07:21:22;3.60;99.90
21244;DHT22;10780;50.942;4.028;2023-02-28T07:23:49;3.70;99.90
21244;DHT22;10780;50.942;4.028;2023-02-28T07:26:18;3.80;99.90
21244;DHT22;10780;50.942;4.028;2023-02-28T07:28:47;3.80;99.90
21244;DHT22;10780;50.942;4.028;2023-02-28T07:31:14;3.80;99.90
21244;DHT22;10780;50.942;4.028;2023-02-28T07:33:47;3.70;99.90
21244;DHT22;10780;50.942;4.028;2023-02-28T07:36:16;3.70;99.90
21244;DHT22;10780;50.942;4.028;2023-02-28T07:38:46;3.80;99.90
21244;DHT22;10780;50.942;4.028;2023-02-28T07:41:17;3.80;99.90
21244;DHT22;10780;50.942;4.028;2023-02-28T07:43:46;4.00;99.90
21244;DHT22;10780;50.942;4.028;2023-02-28T07:46:14;4.10;99.90
21244;DHT22;10780;50.942;4.028;2023-02-28T07:48:43;4.30;99.90
21244;DHT22;10780;50.942;4.028;2023-02-28T07:51:11;4.50;99.90
21244;DHT22;10780;50.942;4.028;2023-02-28T07:53:39;4.50;99.90
21244;DHT22;10780;50.942;4.028;2023-02-28T07:56:07;4.50;99.90
21244;DHT22;10780;50.942;4.028;2023-02-28T07:58:35;4.60;99.90
21244;DHT22;10780;50.942;4.028;2023-02-28T08:01:06;4.70;99.90
21244;DHT22;10780;50.942;4.028;2023-02-28T08:03:33;4.60;99.90
21244;DHT22;10780;50.942;4.028;2023-02-28T08:05:59;4.70;99.90
21244;DHT22;10780;50.942;4.028;2023-02-28T08:08:25;4.90;99.90
21244;DHT22;10780;50.942;4.028;2023-02-28T08:11:00;5.00;99.90
21244;DHT22;10780;50.942;4.028;2023-02-28T08:13:27;4.80;99.90
21244;DHT22;10780;50.942;4.028;2023-02-28T08:15:55;4.90;99.90
21244;DHT22;10780;50.942;4.028;2023-02-28T08:18:22;4.90;99.90
21244;DHT22;10780;50.942;4.028;2023-02-28T08:20:48;5.10;99.90
21244;DHT22;10780;50.942;4.028;2023-02-28T08:23:15;5.10;99.90
21244;DHT22;10780;50.942;4.028;2023-02-28T08:25:42;5.10;99.90
21244;DHT22;10780;50.942;4.028;2023-02-28T08:28:08;5.40;99.90
21244;DHT22;10780;50.942;4.028;2023-02-28T08:30:34;5.50;99.90
21244;DHT22;10780;50.942;4.028;2023-02-28T08:32:59;5.60;99.90
21244;DHT22;10780;50.942;4.028;2023-02-28T08:35:27;5.30;99.90
21244;DHT22;10780;50.942;4.028;2023-02-28T08:37:52;5.20;99.90
21244;DHT22;10780;50.942;4.028;2023-02-28T08:40:18;5.30;99.90
21244;DHT22;10780;50.942;4.028;2023-02-28T08:42:45;5.30;99.90
21244;DHT22;10780;50.942;4.028;2023-02-28T08:45:12;5.40;99.90
21244;DHT22;10780;50.942;4.028;2023-02-28T08:47:38;5.60;99.90
21244;DHT22;10780;50.942;4.028;2023-02-28T08:50:08;5.60;99.90
21244;DHT22;10780;50.942;4.028;2023-02-28T08:52:37;5.80;99.90
21244;DHT22;10780;50.942;4.028;2023-02-28T08:55:04;5.90;99.90
21244;DHT22;10780;50.942;4.028;2023-02-28T08:57:30;6.10;99.90
21244;DHT22;10780;50.942;4.028;2023-02-28T08:59:55;5.90;99.90
21244;DHT22;10780;50.942;4.028;2023-02-28T09:02:21;6.10;99.90
21244;DHT22;10780;50.942;4.028;2023-02-28T09:04:47;6.10;99.90
21244;DHT22;10780;50.942;4.028;2023-02-28T09:07:13;6.00;99.90
21244;DHT22;10780;50.942;4.028;2023-02-28T09:09:39;6.00;99.90
21244;DHT22;10780;50.942;4.028;2023-02-28T09:12:20;6.10;99.90
21244;DHT22;10780;50.942;4.028;2023-02-28T09:14:46;6.30;99.90
21244;DHT22;10780;50.942;4.028;2023-02-28T09:17:12;6.40;99.90
21244;DHT22;10780;50.942;4.028;2023-02-28T09:19:39;6.40;99.90
21244;DHT22;10780;50.942;4.028;2023-02-28T09:22:13;6.30;99.90
21244;DHT22;10780;50.942;4.028;2023-02-28T09:24:46;6.10;99.90
21244;DHT22;10780;50.942;4.028;2023-02-28T09:27:11;6.10;99.90
21244;DHT22;10780;50.942;4.028;2023-02-28T09:29:37;6.20;99.90
21244;DHT22;10780;50.942;4.028;2023-02-28T09:32:03;6.20;99.90
21244;DHT22;10780;50.942;4.028;2023-02-28T09:34:31;6.40;99.90
21244;DHT22;10780;50.942;4.028;2023-02-28T09:36:56;6.40;99.90
21244;DHT22;10780;50.942;4.028;2023-02-28T09:39:23;6.50;99.90
21244;DHT22;10780;50.942;4.028;2023-02-28T09:41:51;6.40;99.90
21244;DHT22;10780;50.942;4.028;2023-02-28T09:44:28;6.20;99.90
21244;DHT22;10780;50.942;4.028;2023-02-28T09:46:58;6.20;99.90
21244;DHT22;10780;50.942;4.028;2023-02-28T09:49:38;6.50;99.90
21244;DHT22;10780;50.942;4.028;2023-02-28T09:52:15;6.50;99.90
21244;DHT22;10780;50.942;4.028;2023-02-28T09:54:42;6.80;99.90
21244;DHT22;10780;50.942;4.028;2023-02-28T10:02:21;7.30;99.90
21244;DHT22;10780;50.942;4.028;2023-02-28T10:04:50;7.10;99.90
21244;DHT22;10780;50.942;4.028;2023-02-28T10:07:50;7.00;99.90
21244;DHT22;10780;50.942;4.028;2023-02-28T10:12:57;6.70;99.90
21244;DHT22;10780;50.942;4.028;2023-02-28T10:15:26;6.70;99.90
21244;DHT22;10780;50.942;4.028;2023-02-28T10:17:58;6.70;99.90
21244;DHT22;10780;50.942;4.028;2023-02-28T10:20:26;6.60;99.90
21244;DHT22;10780;50.942;4.028;2023-02-28T10:25:55;6.70;99.90
21244;DHT22;10780;50.942;4.028;2023-02-28T10:28:24;6.90;99.90
21244;DHT22;10780;50.942;4.028;2023-02-28T10:30:53;6.90;99.90
21244;DHT22;10780;50.942;4.028;2023-02-28T10:35:55;6.70;99.90
21244;DHT22;10780;50.942;4.028;2023-02-28T10:38:26;6.60;99.90
21244;DHT22;10780;50.942;4.028;2023-02-28T10:41:06;6.70;99.90
21244;DHT22;10780;50.942;4.028;2023-02-28T10:43:31;6.70;99.90
21244;DHT22;10780;50.942;4.028;2023-02-28T10:48:42;6.40;99.90
21244;DHT22;10780;50.942;4.028;2023-02-28T10:51:15;6.20;99.90
21244;DHT22;10780;50.942;4.028;2023-02-28T10:53:52;6.10;99.90
21244;DHT22;10780;50.942;4.028;2023-02-28T10:56:21;6.10;99.90
21244;DHT22;10780;50.942;4.028;2023-02-28T11:01:40;6.10;99.90
21244;DHT22;10780;50.942;4.028;2023-02-28T11:07:03;6.00;99.90
21244;DHT22;10780;50.942;4.028;2023-02-28T11:09:40;6.00;99.90
21244;DHT22;10780;50.942;4.028;2023-02-28T11:12:07;6.20;99.90
21244;DHT22;10780;50.942;4.028;2023-02-28T11:14:46;6.10;99.90
21244;DHT22;10780;50.942;4.028;2023-02-28T11:17:26;6.20;99.90
21244;DHT22;10780;50.942;4.028;2023-02-28T11:19:55;6.00;99.90
21244;DHT22;10780;50.942;4.028;2023-02-28T11:22:24;6.00;99.90
21244;DHT22;10780;50.942;4.028;2023-02-28T11:25:00;5.80;99.90
21244;DHT22;10780;50.942;4.028;2023-02-28T11:27:41;6.00;99.90
21244;DHT22;10780;50.942;4.028;2023-02-28T11:30:24;6.10;99.90
21244;DHT22;10780;50.942;4.028;2023-02-28T11:32:50;6.00;99.90
21244;DHT22;10780;50.942;4.028;2023-02-28T11:35:23;6.00;99.90
21244;DHT22;10780;50.942;4.028;2023-02-28T11:37:52;6.10;99.90
21244;DHT22;10780;50.942;4.028;2023-02-28T11:43:29;5.80;99.90
21244;DHT22;10780;50.942;4.028;2023-02-28T11:46:18;5.90;99.90
21244;DHT22;10780;50.942;4.028;2023-02-28T11:49:21;6.00;99.90
21244;DHT22;10780;50.942;4.028;2023-02-28T11:51:57;6.10;99.90
21244;DHT22;10780;50.942;4.028;2023-02-28T11:54:35;6.20;99.90
21244;DHT22;10780;50.942;4.028;2023-02-28T12:00:17;6.30;99.90
21244;DHT22;10780;50.942;4.028;2023-02-28T12:05:53;6.30;99.90
21244;DHT22;10780;50.942;4.028;2023-02-28T12:11:54;6.50;99.90
21244;DHT22;10780;50.942;4.028;2023-02-28T12:22:58;6.60;99.90
21244;DHT22;10780;50.942;4.028;2023-02-28T12:28:33;6.80;99.90
21244;DHT22;10780;50.942;4.028;2023-02-28T12:31:11;6.80;99.90
21244;DHT22;10780;50.942;4.028;2023-02-28T12:33:46;6.60;99.90
21244;DHT22;10780;50.942;4.028;2023-02-28T12:36:16;6.50;99.90
21244;DHT22;10780;50.942;4.028;2023-02-28T12:38:53;6.60;99.90
21244;DHT22;10780;50.942;4.028;2023-02-28T12:41:36;6.50;99.90
21244;DHT22;10780;50.942;4.028;2023-02-28T12:44:12;6.50;99.90
21244;DHT22;10780;50.942;4.028;2023-02-28T12:46:48;6.50;99.90
21244;DHT22;10780;50.942;4.028;2023-02-28T12:51:53;6.70;99.90
21244;DHT22;10780;50.942;4.028;2023-02-28T12:54:51;6.70;99.90
21244;DHT22;10780;50.942;4.028;2023-02-28T12:57:40;6.80;99.90
21244;DHT22;10780;50.942;4.028;2023-02-28T13:00:13;6.80;99.90
21244;DHT22;10780;50.942;4.028;2023-02-28T13:10:53;6.90;99.90
21244;DHT22;10780;50.942;4.028;2023-02-28T13:13:29;7.00;99.90
21244;DHT22;10780;50.942;4.028;2023-02-28T13:16:07;6.90;99.90
21244;DHT22;10780;50.942;4.028;2023-02-28T13:18:43;6.80;99.90
21244;DHT22;10780;50.942;4.028;2023-02-28T13:34:32;6.60;99.90
21244;DHT22;10780;50.942;4.028;2023-02-28T13:37:35;6.60;99.90
21244;DHT22;10780;50.942;4.028;2023-02-28T13:40:39;6.60;99.90
21244;DHT22;10780;50.942;4.028;2023-02-28T13:43:08;6.80;99.90
21244;DHT22;10780;50.942;4.028;2023-02-28T13:45:34;6.80;99.90
21244;DHT22;10780;50.942;4.028;2023-02-28T13:48:24;6.70;99.90
21244;DHT22;10780;50.942;4.028;2023-02-28T13:50:52;6.60;99.90
21244;DHT22;10780;50.942;4.028;2023-02-28T13:54:00;6.70;99.90
21244;DHT22;10780;50.942;4.028;2023-02-28T13:56:37;6.80;99.90
21244;DHT22;10780;50.942;4.028;2023-02-28T14:05:01;6.70;99.90
21244;DHT22;10780;50.942;4.028;2023-02-28T14:07:41;6.90;99.90
21244;DHT22;10780;50.942;4.028;2023-02-28T14:11:03;7.10;99.90
21244;DHT22;10780;50.942;4.028;2023-02-28T14:15:57;7.10;99.90
21244;DHT22;10780;50.942;4.028;2023-02-28T14:18:35;6.80;99.90
21244;DHT22;10780;50.942;4.028;2023-02-28T14:21:09;6.70;99.90
21244;DHT22;10780;50.942;4.028;2023-02-28T14:23:43;6.70;99.90
21244;DHT22;10780;50.942;4.028;2023-02-28T14:26:43;6.70;99.90
21244;DHT22;10780;50.942;4.028;2023-02-28T14:37:38;6.70;99.90
21244;DHT22;10780;50.942;4.028;2023-02-28T14:40:13;6.80;99.90
21244;DHT22;10780;50.942;4.028;2023-02-28T14:42:45;6.90;99.90
21244;DHT22;10780;50.942;4.028;2023-02-28T14:45:21;6.90;99.90
21244;DHT22;10780;50.942;4.028;2023-02-28T14:47:49;6.90;99.90
21244;DHT22;10780;50.942;4.028;2023-02-28T14:50:21;7.00;99.90
21244;DHT22;10780;50.942;4.028;2023-02-28T14:52:48;7.00;99.90
21244;DHT22;10780;50.942;4.028;2023-02-28T14:55:17;7.00;99.90
21244;DHT22;10780;50.942;4.028;2023-02-28T14:58:04;7.00;99.90
21244;DHT22;10780;50.942;4.028;2023-02-28T15:00:36;6.90;99.90
21244;DHT22;10780;50.942;4.028;2023-02-28T15:03:33;6.90;99.90
21244;DHT22;10780;50.942;4.028;2023-02-28T15:06:02;7.00;99.90
21244;DHT22;10780;50.942;4.028;2023-02-28T15:08:28;7.00;99.90
21244;DHT22;10780;50.942;4.028;2023-02-28T15:11:01;7.10;99.90
21244;DHT22;10780;50.942;4.028;2023-02-28T15:16:04;6.90;99.90
21244;DHT22;10780;50.942;4.028;2023-02-28T15:21:25;6.70;99.90
21244;DHT22;10780;50.942;4.028;2023-02-28T15:24:19;6.70;99.90
21244;DHT22;10780;50.942;4.028;2023-02-28T15:26:53;6.70;99.90
21244;DHT22;10780;50.942;4.028;2023-02-28T15:29:23;6.70;99.90
21244;DHT22;10780;50.942;4.028;2023-02-28T15:32:00;6.70;99.90
21244;DHT22;10780;50.942;4.028;2023-02-28T15:34:41;6.70;99.90
21244;DHT22;10780;50.942;4.028;2023-02-28T15:40:12;6.70;99.90
21244;DHT22;10780;50.942;4.028;2023-02-28T15:42:38;6.70;99.90
21244;DHT22;10780;50.942;4.028;2023-02-28T15:45:04;6.70;99.90
21244;DHT22;10780;50.942;4.028;2023-02-28T15:47:31;6.70;99.90
21244;DHT22;10780;50.942;4.028;2023-02-28T15:50:08;6.50;99.90
21244;DHT22;10780;50.942;4.028;2023-02-28T15:52:41;6.60;99.90
21244;DHT22;10780;50.942;4.028;2023-02-28T15:57:45;6.80;99.90
21244;DHT22;10780;50.942;4.028;2023-02-28T16:00:16;6.90;99.90
21244;DHT22;10780;50.942;4.028;2023-02-28T16:02:44;6.70;99.90
21244;DHT22;10780;50.942;4.028;2023-02-28T16:07:40;6.60;99.90
21244;DHT22;10780;50.942;4.028;2023-02-28T16:10:10;6.50;99.90
21244;DHT22;10780;50.942;4.028;2023-02-28T16:12:38;6.70;99.90
21244;DHT22;10780;50.942;4.028;2023-02-28T16:15:28;7.10;99.90
21244;DHT22;10780;50.942;4.028;2023-02-28T16:17:55;7.50;99.90
21244;DHT22;10780;50.942;4.028;2023-02-28T16:20:26;7.90;99.90
21244;DHT22;10780;50.942;4.028;2023-02-28T16:22:53;8.20;99.90
21244;DHT22;10780;50.942;4.028;2023-02-28T16:25:21;8.70;99.90
21244;DHT22;10780;50.942;4.028;2023-02-28T16:27:49;8.80;99.90
21244;DHT22;10780;50.942;4.028;2023-02-28T16:30:21;8.80;99.90
21244;DHT22;10780;50.942;4.028;2023-02-28T16:32:47;8.90;99.90
21244;DHT22;10780;50.942;4.028;2023-02-28T16:35:13;9.00;99.90
21244;DHT22;10780;50.942;4.028;2023-02-28T16:37:39;9.00;99.90
21244;DHT22;10780;50.942;4.028;2023-02-28T16:40:08;9.50;99.90
21244;DHT22;10780;50.942;4.028;2023-02-28T16:42:34;9.30;99.90
21244;DHT22;10780;50.942;4.028;2023-02-28T16:45:00;9.10;99.90
21244;DHT22;10780;50.942;4.028;2023-02-28T16:47:26;8.90;99.90
21244;DHT22;10780;50.942;4.028;2023-02-28T16:49:52;8.50;99.90
21244;DHT22;10780;50.942;4.028;2023-02-28T16:52:18;8.40;99.90
21244;DHT22;10780;50.942;4.028;2023-02-28T16:54:43;8.30;99.90
21244;DHT22;10780;50.942;4.028;2023-02-28T16:57:22;8.20;99.90
21244;DHT22;10780;50.942;4.028;2023-02-28T16:59:49;8.00;99.90
21244;DHT22;10780;50.942;4.028;2023-02-28T17:02:18;7.90;99.90
21244;DHT22;10780;50.942;4.028;2023-02-28T17:04:45;7.80;99.90
21244;DHT22;10780;50.942;4.028;2023-02-28T17:07:13;7.80;99.90
21244;DHT22;10780;50.942;4.028;2023-02-28T17:09:39;7.40;99.90
21244;DHT22;10780;50.942;4.028;2023-02-28T17:12:08;7.30;99.90
21244;DHT22;10780;50.942;4.028;2023-02-28T17:14:34;7.00;99.90
21244;DHT22;10780;50.942;4.028;2023-02-28T17:17:00;6.80;99.90
21244;DHT22;10780;50.942;4.028;2023-02-28T17:19:26;6.50;99.90
21244;DHT22;10780;50.942;4.028;2023-02-28T17:21:53;6.40;99.90
21244;DHT22;10780;50.942;4.028;2023-02-28T17:24:19;6.10;99.90
21244;DHT22;10780;50.942;4.028;2023-02-28T17:26:44;6.00;99.90
21244;DHT22;10780;50.942;4.028;2023-02-28T17:29:16;6.00;99.90
21244;DHT22;10780;50.942;4.028;2023-02-28T17:31:42;5.90;99.90
21244;DHT22;10780;50.942;4.028;2023-02-28T17:34:08;5.70;99.90
21244;DHT22;10780;50.942;4.028;2023-02-28T17:36:34;5.50;99.90
21244;DHT22;10780;50.942;4.028;2023-02-28T17:39:00;5.40;99.90
21244;DHT22;10780;50.942;4.028;2023-02-28T17:41:26;5.30;99.90
21244;DHT22;10780;50.942;4.028;2023-02-28T17:43:52;5.20;99.90
21244;DHT22;10780;50.942;4.028;2023-02-28T17:46:20;5.20;99.90
21244;DHT22;10780;50.942;4.028;2023-02-28T17:48:51;5.20;99.90
21244;DHT22;10780;50.942;4.028;2023-02-28T17:51:18;5.10;99.90
21244;DHT22;10780;50.942;4.028;2023-02-28T17:53:44;5.00;99.90
21244;DHT22;10780;50.942;4.028;2023-02-28T17:56:16;5.00;99.90
21244;DHT22;10780;50.942;4.028;2023-02-28T17:58:42;5.00;99.90
21244;DHT22;10780;50.942;4.028;2023-02-28T18:01:08;5.00;99.90
21244;DHT22;10780;50.942;4.028;2023-02-28T18:03:34;4.90;99.90
21244;DHT22;10780;50.942;4.028;2023-02-28T18:06:00;4.80;99.90
21244;DHT22;10780;50.942;4.028;2023-02-28T18:08:26;4.70;99.90
21244;DHT22;10780;50.942;4.028;2023-02-28T18:10:52;4.80;99.90
21244;DHT22;10780;50.942;4.028;2023-02-28T18:13:18;4.90;99.90